Terminal Aerodrome Forecast
Issued by NWS

Home | Current Version | Previous Version | Text Only | Print | Product List | Glossary On
Versions: 1 2 3 4 5 6 7 8 9 10 11 12 13 14 15
000
FTUS45 KRIW 301137
TAFJAC
TAF
KJAC 301137Z 3012/0112 36008KT P6SM VCFG FEW002 SCT006
     FM301500 VRB05KT P6SM VCSH SCT020 BKN035
     FM302000 35010KT P6SM VCSH BKN040
     FM010300 36011KT P6SM SCT060
      AMD LTD TO CLD VIS AND WIND=

USA.gov is the U.S. government's official web portal to all federal, state and local government web resources and services.